Time;durP1;ratioP1;P1;durP2;ratioP2;P2;SDS_P1;SDS_P2;PMS_P1;PMS_P2;Temp;Humidity;BMP_temperature;BMP_pressure;BME280_temperature;BME280_humidity;BME280_pressure;Samples;Min_cycle;Max_cycle;Signal;HPM_P1;HPM_P2
2022/05/27 00:00:18;;;;;;;3.47;1.25;;;15.70;62.20;;;;;;4968629;28;20046;-75
2022/05/27 00:02:48;;;;;;;1.98;1.10;;;15.60;62.50;;;;;;4984342;28;20040;-75
2022/05/27 00:05:14;;;;;;;1.83;1.10;;;15.60;62.40;;;;;;4995440;28;20057;-75
2022/05/27 00:07:39;;;;;;;1.90;0.90;;;15.60;62.50;;;;;;4984903;28;20049;-75
2022/05/27 00:10:06;;;;;;;1.92;0.90;;;15.70;62.70;;;;;;4997109;28;20066;-76
2022/05/27 00:12:31;;;;;;;2.28;0.85;;;15.60;62.80;;;;;;4968861;28;22058;-75
2022/05/27 00:14:57;;;;;;;4.82;1.02;;;15.60;62.70;;;;;;4988221;28;20050;-75
2022/05/27 00:17:22;;;;;;;1.88;1.33;;;15.60;62.70;;;;;;4981895;28;20180;-75
2022/05/27 00:19:48;;;;;;;2.70;0.93;;;15.60;62.90;;;;;;4981963;28;20057;-74
2022/05/27 00:22:13;;;;;;;3.38;1.10;;;15.60;62.80;;;;;;4972934;28;20546;-75
2022/05/27 00:24:39;;;;;;;1.92;0.80;;;15.50;62.80;;;;;;4999842;28;20088;-76
2022/05/27 00:27:07;;;;;;;3.28;1.17;;;15.50;62.80;;;;;;4967083;28;20163;-74
2022/05/27 00:29:32;;;;;;;3.40;1.27;;;15.50;63.00;;;;;;4939464;28;20514;-75
2022/05/27 00:31:58;;;;;;;2.55;1.08;;;15.40;62.90;;;;;;4998263;28;20046;-74
2022/05/27 00:34:23;;;;;;;3.22;1.35;;;15.40;63.10;;;;;;4997132;28;20046;-75
2022/05/27 00:36:49;;;;;;;3.15;1.20;;;15.40;63.40;;;;;;4988376;28;20046;-76
2022/05/27 00:39:14;;;;;;;4.35;1.20;;;15.30;63.50;;;;;;4975103;28;20038;-75
2022/05/27 00:41:43;;;;;;;2.15;1.17;;;15.30;63.60;;;;;;4961918;28;20037;-75
2022/05/27 00:44:08;;;;;;;1.40;1.00;;;15.30;63.60;;;;;;4990381;28;20042;-75
2022/05/27 00:46:34;;;;;;;5.00;1.50;;;15.30;63.70;;;;;;4999319;28;20041;-75
2022/05/27 00:49:08;;;;;;;3.63;1.02;;;15.30;63.80;;;;;;4970064;28;20033;-75
2022/05/27 00:51:43;;;;;;;2.80;1.25;;;15.30;64.20;;;;;;4986862;28;20052;-74
2022/05/27 00:54:10;;;;;;;3.10;1.20;;;15.20;64.20;;;;;;4986356;28;20049;-75
2022/05/27 00:56:39;;;;;;;2.97;1.00;;;15.20;64.30;;;;;;4986285;28;20045;-74
2022/05/27 00:59:07;;;;;;;3.90;1.10;;;15.20;64.40;;;;;;4971347;28;20107;-74
2022/05/27 01:01:33;;;;;;;3.45;1.48;;;15.20;64.60;;;;;;4964810;28;20065;-74
2022/05/27 01:03:58;;;;;;;2.35;1.30;;;15.20;64.60;;;;;;4982974;28;20668;-74
2022/05/27 01:06:24;;;;;;;3.58;1.08;;;15.10;64.80;;;;;;4948352;28;20073;-76
2022/05/27 01:08:49;;;;;;;4.03;1.40;;;15.10;64.80;;;;;;4981695;28;20061;-75
2022/05/27 01:11:31;;;;;;;1.85;1.08;;;15.10;64.80;;;;;;5000358;28;20053;-75
2022/05/27 01:14:18;;;;;;;2.65;1.73;;;15.10;65.20;;;;;;4972420;28;20039;-74
2022/05/27 01:17:09;;;;;;;1.73;0.90;;;15.10;65.20;;;;;;4999897;28;20034;-74
2022/05/27 01:20:24;;;;;;;1.45;0.85;;;15.00;65.40;;;;;;4972508;28;20030;-74
2022/05/27 01:23:27;;;;;;;1.83;0.80;;;15.00;66.10;;;;;;4973089;28;20108;-74
2022/05/27 01:26:30;;;;;;;2.30;0.88;;;15.00;65.20;;;;;;4996696;28;20080;-74
2022/05/27 01:29:03;;;;;;;2.85;0.98;;;15.00;65.20;;;;;;4987592;28;20038;-74
2022/05/27 01:31:41;;;;;;;1.67;0.90;;;15.00;64.90;;;;;;5002182;28;20034;-74
2022/05/27 01:34:20;;;;;;;1.75;0.98;;;14.90;65.20;;;;;;4999804;28;20194;-73
2022/05/27 01:37:07;;;;;;;2.80;1.40;;;14.90;65.20;;;;;;4973960;28;20050;-74
2022/05/27 01:39:51;;;;;;;2.38;1.50;;;14.90;65.20;;;;;;4964108;28;20068;-74
2022/05/27 01:42:32;;;;;;;0.80;0.80;;;14.90;65.20;;;;;;4991325;28;20514;-74
2022/05/27 01:45:18;;;;;;;1.95;1.05;;;14.80;65.20;;;;;;4959004;28;20034;-74
2022/05/27 01:48:20;;;;;;;2.45;1.20;;;14.80;65.50;;;;;;4963932;28;20118;-74
2022/05/27 01:51:10;;;;;;;2.05;1.05;;;14.80;66.50;;;;;;4887528;29;20024;-74
2022/05/27 01:53:53;;;;;;;2.10;1.20;;;14.70;65.60;;;;;;4905082;29;20111;-74
2022/05/27 01:56:23;;;;;;;2.13;1.27;;;14.70;65.80;;;;;;4887590;29;20064;-74
2022/05/27 01:59:35;;;;;;;3.83;1.10;;;14.70;65.60;;;;;;4904212;29;20095;-73
2022/05/27 02:02:07;;;;;;;1.73;1.05;;;14.60;66.10;;;;;;4848173;29;20851;-74
2022/05/27 02:05:09;;;;;;;1.20;1.10;;;14.60;65.80;;;;;;4848441;29;20202;-74
2022/05/27 02:07:45;;;;;;;1.58;0.80;;;14.60;66.00;;;;;;4799853;29;20037;-74
2022/05/27 02:10:15;;;;;;;2.08;1.17;;;14.60;65.90;;;;;;4846891;29;20064;-74
2022/05/27 02:12:47;;;;;;;2.45;0.98;;;14.60;66.00;;;;;;4865263;29;20134;-74
2022/05/27 02:15:30;;;;;;;2.72;0.90;;;14.50;66.00;;;;;;4844681;29;20083;-74
2022/05/27 02:18:12;;;;;;;5.05;1.13;;;14.50;66.20;;;;;;4835578;29;20022;-74
2022/05/27 02:20:41;;;;;;;2.70;1.00;;;14.50;66.20;;;;;;4849243;29;20032;-74
2022/05/27 02:23:33;;;;;;;3.83;1.17;;;14.50;66.30;;;;;;4843579;29;20037;-74
2022/05/27 02:25:59;;;;;;;2.75;0.90;;;14.50;66.70;;;;;;4915471;29;20032;-74
2022/05/27 02:28:26;;;;;;;3.88;1.35;;;14.40;66.40;;;;;;4912180;28;20040;-74
2022/05/27 02:30:56;;;;;;;2.47;1.20;;;14.40;66.40;;;;;;4903544;29;20126;-73
2022/05/27 02:36:16;;;;;;;1.98;1.17;;;14.40;66.90;;;;;;4942407;28;20484;-74
2022/05/27 02:38:41;;;;;;;2.85;1.10;;;14.30;66.80;;;;;;4970182;28;20070;-73
2022/05/27 02:41:13;;;;;;;2.15;1.08;;;14.30;66.90;;;;;;4984352;28;20058;-74
2022/05/27 02:43:44;;;;;;;;;;;14.30;67.10;;;;;;4973402;28;20042;-73
2022/05/27 02:46:38;;;;;;;2.37;1.00;;;14.30;66.80;;;;;;4974039;28;19917;-74
2022/05/27 02:49:24;;;;;;;1.48;1.20;;;14.20;66.70;;;;;;4984777;28;20723;-74
2022/05/27 02:52:03;;;;;;;4.32;1.33;;;14.20;67.20;;;;;;4992639;28;20026;-73
2022/05/27 02:54:38;;;;;;;3.67;1.30;;;14.20;67.20;;;;;;4967910;28;20033;-74
2022/05/27 02:57:27;;;;;;;1.50;0.95;;;14.20;67.20;;;;;;4967889;28;20037;-73
2022/05/27 02:59:53;;;;;;;2.28;1.10;;;14.10;67.70;;;;;;4987161;28;20030;-74
2022/05/27 03:02:18;;;;;;;3.05;0.90;;;14.10;67.20;;;;;;4968504;28;20580;-74
2022/05/27 03:04:47;;;;;;;3.35;0.90;;;14.10;67.30;;;;;;4970499;28;20038;-73
2022/05/27 03:07:16;;;;;;;4.20;1.30;;;14.10;67.40;;;;;;4969887;28;20045;-74
2022/05/27 03:10:19;;;;;;;1.60;0.95;;;14.00;67.50;;;;;;4982125;28;20033;-74
2022/05/27 03:13:04;;;;;;;2.22;1.40;;;14.00;67.90;;;;;;4986144;28;20037;-74
2022/05/27 03:15:44;;;;;;;4.32;1.20;;;14.00;68.00;;;;;;4989183;28;20038;-74
2022/05/27 03:18:19;;;;;;;1.48;0.95;;;14.00;67.90;;;;;;4996646;28;20105;-74
2022/05/27 03:20:55;;;;;;;3.03;1.02;;;14.00;67.70;;;;;;4982507;28;20069;-74
2022/05/27 03:23:31;;;;;;;4.68;1.60;;;13.90;67.90;;;;;;4983681;28;20045;-74
2022/05/27 03:26:10;;;;;;;2.65;1.23;;;13.90;68.10;;;;;;4982095;28;20085;-74
2022/05/27 03:28:51;;;;;;;2.80;1.10;;;13.90;68.20;;;;;;4957515;28;20029;-73
2022/05/27 03:31:23;;;;;;;2.25;1.10;;;13.90;68.40;;;;;;4988349;28;20114;-73
2022/05/27 03:34:08;;;;;;;3.17;1.10;;;13.90;68.20;;;;;;4953945;28;20122;-74
2022/05/27 03:36:41;;;;;;;1.65;1.20;;;13.80;68.20;;;;;;4977618;28;20034;-74
2022/05/27 03:39:23;;;;;;;2.80;0.98;;;13.80;68.40;;;;;;5000646;28;20034;-73
2022/05/27 03:41:54;;;;;;;3.95;1.25;;;13.80;68.50;;;;;;4995483;28;20048;-74
2022/05/27 03:44:20;;;;;;;1.65;1.05;;;13.80;68.60;;;;;;4972851;28;20050;-74
2022/05/27 03:46:48;;;;;;;2.85;1.08;;;13.80;68.60;;;;;;4985417;28;20029;-73
2022/05/27 03:49:14;;;;;;;4.45;1.00;;;13.80;68.80;;;;;;4981888;28;20052;-73
2022/05/27 03:52:17;;;;;;;3.15;1.02;;;13.80;68.80;;;;;;4989676;28;20025;-74
2022/05/27 03:54:43;;;;;;;7.18;1.35;;;13.80;69.30;;;;;;4970073;28;20048;-74
2022/05/27 03:57:08;;;;;;;3.45;1.27;;;13.80;68.80;;;;;;4999523;28;20034;-74
2022/05/27 03:59:34;;;;;;;4.50;1.25;;;13.80;69.10;;;;;;4999782;28;20045;-75
2022/05/27 04:01:59;;;;;;;3.88;1.13;;;13.80;69.10;;;;;;5000615;28;20038;-75
2022/05/27 04:04:26;;;;;;;2.95;1.20;;;13.80;69.30;;;;;;5001171;28;20046;-75
2022/05/27 04:06:52;;;;;;;1.25;1.10;;;13.80;69.40;;;;;;4984525;28;20029;-73
2022/05/27 04:09:19;;;;;;;2.10;1.23;;;13.80;69.50;;;;;;4984469;28;20117;-74
2022/05/27 04:11:44;;;;;;;1.80;1.05;;;13.90;69.70;;;;;;4980874;28;20029;-74
2022/05/27 04:14:10;;;;;;;1.77;0.90;;;13.90;69.80;;;;;;4958431;28;20053;-73
2022/05/27 04:16:36;;;;;;;1.75;1.10;;;13.80;70.00;;;;;;4958200;28;20052;-74
2022/05/27 04:19:01;;;;;;;3.72;1.33;;;13.90;70.30;;;;;;4983607;28;20109;-73
2022/05/27 04:21:27;;;;;;;2.00;1.40;;;13.90;70.50;;;;;;4970841;28;20034;-73
2022/05/27 04:23:52;;;;;;;3.60;1.35;;;13.90;70.90;;;;;;4968427;28;20092;-74
2022/05/27 04:26:18;;;;;;;3.60;1.40;;;14.00;71.20;;;;;;4978463;28;20038;-74
2022/05/27 04:28:44;;;;;;;3.42;1.48;;;14.00;71.40;;;;;;4956413;28;20038;-74
2022/05/27 04:31:10;;;;;;;4.07;1.42;;;14.10;71.60;;;;;;4956008;28;20035;-74
2022/05/27 04:33:36;;;;;;;3.80;1.20;;;14.10;71.70;;;;;;5000166;28;20034;-74
2022/05/27 04:36:01;;;;;;;4.13;1.50;;;14.10;71.80;;;;;;4994663;28;20117;-74
2022/05/27 04:38:27;;;;;;;4.60;1.67;;;14.20;72.00;;;;;;4971101;28;20061;-75
2022/05/27 04:40:53;;;;;;;2.65;1.70;;;14.20;72.10;;;;;;4965330;28;20505;-74
2022/05/27 04:43:18;;;;;;;2.45;1.73;;;14.20;72.10;;;;;;5000575;28;20049;-74
2022/05/27 04:45:44;;;;;;;3.55;1.67;;;14.30;72.40;;;;;;4973942;28;20076;-74
2022/05/27 04:48:10;;;;;;;3.22;1.65;;;14.30;72.50;;;;;;4983045;28;20034;-74
2022/05/27 04:50:36;;;;;;;4.40;1.70;;;14.40;72.50;;;;;;4968860;28;20034;-75
2022/05/27 04:53:02;;;;;;;2.15;1.52;;;14.40;72.50;;;;;;4986351;28;20074;-74
2022/05/27 04:55:30;;;;;;;6.32;1.80;;;14.50;72.60;;;;;;4981498;28;20042;-74
2022/05/27 04:57:56;;;;;;;4.57;1.85;;;14.50;72.60;;;;;;4973766;28;20682;-74
2022/05/27 05:00:23;;;;;;;3.42;1.73;;;14.50;72.60;;;;;;4973098;28;20048;-74
2022/05/27 05:02:49;;;;;;;2.10;1.52;;;14.60;72.70;;;;;;4986014;28;20042;-75
2022/05/27 05:05:16;;;;;;;4.68;1.55;;;14.70;72.70;;;;;;4969336;28;20082;-73
2022/05/27 05:07:43;;;;;;;6.43;1.80;;;14.70;72.60;;;;;;4933371;28;20046;-74
2022/05/27 05:10:12;;;;;;;3.88;1.50;;;14.70;72.70;;;;;;4942501;28;20140;-74
2022/05/27 05:12:38;;;;;;;4.72;2.40;;;14.80;72.80;;;;;;4954029;28;20117;-75
2022/05/27 05:15:04;;;;;;;2.40;1.50;;;14.90;72.70;;;;;;4952075;28;20126;-74
2022/05/27 05:17:29;;;;;;;3.80;1.75;;;14.90;72.60;;;;;;4950488;28;20479;-77
2022/05/27 05:19:56;;;;;;;4.40;1.80;;;15.00;72.40;;;;;;4977058;28;20088;-74
2022/05/27 05:22:22;;;;;;;3.80;1.88;;;15.10;72.40;;;;;;4969020;28;20030;-75
2022/05/27 05:24:48;;;;;;;3.00;1.55;;;15.20;72.30;;;;;;4955374;28;20183;-74
2022/05/27 05:27:14;;;;;;;2.80;1.70;;;15.30;72.20;;;;;;4956243;28;20038;-74
2022/05/27 05:29:40;;;;;;;3.17;2.00;;;15.40;72.10;;;;;;4958440;28;20034;-75
2022/05/27 05:32:06;;;;;;;2.15;1.42;;;15.40;72.00;;;;;;4963698;28;20034;-74
2022/05/27 05:34:31;;;;;;;2.03;1.55;;;15.50;72.00;;;;;;4984192;28;20026;-74
2022/05/27 05:36:57;;;;;;;6.65;2.00;;;15.60;71.80;;;;;;4947504;28;20559;-74
2022/05/27 05:39:23;;;;;;;3.55;1.90;;;15.70;71.70;;;;;;4969974;28;20098;-74
2022/05/27 05:42:02;;;;;;;3.30;1.42;;;15.80;71.50;;;;;;4986799;28;20597;-73
2022/05/27 05:44:27;;;;;;;5.50;1.60;;;15.90;71.30;;;;;;4959035;28;20094;-74
2022/05/27 05:46:53;;;;;;;4.25;1.60;;;16.00;71.10;;;;;;4971730;28;20411;-75
2022/05/27 05:49:19;;;;;;;3.45;1.83;;;16.10;71.00;;;;;;4954569;28;20045;-75
2022/05/27 05:51:44;;;;;;;3.75;1.45;;;16.20;70.80;;;;;;4956545;28;20081;-75
2022/05/27 05:54:10;;;;;;;1.90;1.48;;;16.30;70.70;;;;;;4983904;28;20042;-75
2022/05/27 05:56:35;;;;;;;3.53;1.60;;;16.30;70.40;;;;;;4984276;28;20046;-75
2022/05/27 05:59:01;;;;;;;2.83;1.65;;;16.40;70.40;;;;;;4979846;28;20190;-75
2022/05/27 06:01:27;;;;;;;3.35;1.60;;;16.50;70.20;;;;;;4976581;28;20031;-74
2022/05/27 06:03:52;;;;;;;3.53;1.30;;;16.50;70.00;;;;;;4952220;28;20055;-75
2022/05/27 06:06:18;;;;;;;2.10;1.27;;;16.50;69.80;;;;;;4933688;28;20133;-75
2022/05/27 06:08:43;;;;;;;2.42;1.40;;;16.50;69.80;;;;;;4977235;28;20523;-76
2022/05/27 06:11:09;;;;;;;4.15;1.30;;;16.60;69.60;;;;;;4995362;28;20033;-74
2022/05/27 06:13:40;;;;;;;6.70;1.50;;;16.70;69.60;;;;;;4992679;28;20037;-75
2022/05/27 06:16:06;;;;;;;4.47;1.33;;;16.70;69.40;;;;;;4997759;28;20039;-74
2022/05/27 06:18:31;;;;;;;3.22;1.30;;;16.80;69.20;;;;;;4984364;28;20667;-74
2022/05/27 06:20:57;;;;;;;2.75;1.40;;;16.90;69.10;;;;;;4985455;28;20029;-71
2022/05/27 06:23:23;;;;;;;5.00;1.42;;;16.90;69.80;;;;;;4968930;28;20084;-74
2022/05/27 06:25:58;;;;;;;2.67;1.35;;;17.00;68.80;;;;;;4982986;28;20034;-74
2022/05/27 06:36:37;;;;;;;1.75;1.35;;;17.20;68.10;;;;;;4978962;28;20050;-75
2022/05/27 06:39:06;;;;;;;4.80;1.40;;;17.30;68.00;;;;;;4967901;28;20034;-74
2022/05/27 06:41:31;;;;;;;1.48;1.17;;;17.30;67.90;;;;;;5000760;28;20042;-74
2022/05/27 06:43:57;;;;;;;4.28;1.85;;;17.40;67.80;;;;;;4990479;28;20488;-73
2022/05/27 06:46:22;;;;;;;3.75;1.42;;;17.40;67.70;;;;;;4968152;28;20595;-75
2022/05/27 06:48:48;;;;;;;2.40;1.00;;;17.50;67.60;;;;;;4983313;28;20064;-74
2022/05/27 06:51:14;;;;;;;2.13;1.48;;;17.60;67.40;;;;;;4966039;28;20099;-74
2022/05/27 06:53:39;;;;;;;3.45;1.35;;;17.60;67.30;;;;;;4985684;28;20029;-74
2022/05/27 06:56:05;;;;;;;3.88;1.27;;;17.70;67.20;;;;;;5003556;28;20042;-75
2022/05/27 06:58:30;;;;;;;3.75;1.40;;;17.70;67.00;;;;;;4994901;28;20499;-73
2022/05/27 07:00:56;;;;;;;2.60;1.42;;;17.80;66.90;;;;;;4970560;28;20057;-74
2022/05/27 07:03:22;;;;;;;3.13;1.33;;;17.80;66.80;;;;;;4967744;28;20580;-74
2022/05/27 07:05:48;;;;;;;1.67;1.15;;;17.90;66.80;;;;;;5002177;28;20042;-74
2022/05/27 07:08:14;;;;;;;4.45;1.20;;;17.90;66.50;;;;;;4989376;28;20042;-77
2022/05/27 07:10:39;;;;;;;1.70;1.27;;;18.00;66.30;;;;;;4977793;28;20128;-76
2022/05/27 07:13:05;;;;;;;2.08;1.30;;;18.10;66.20;;;;;;4974259;28;20084;-77
2022/05/27 07:15:30;;;;;;;1.85;1.33;;;18.10;66.00;;;;;;4973427;28;20513;-76
2022/05/27 07:17:56;;;;;;;1.48;1.10;;;18.10;65.80;;;;;;4997385;28;20050;-75
2022/05/27 07:20:23;;;;;;;2.70;1.20;;;18.20;65.80;;;;;;4990090;28;20030;-76
2022/05/27 07:22:48;;;;;;;1.30;1.15;;;18.20;65.60;;;;;;4957552;28;20037;-75
2022/05/27 07:25:14;;;;;;;4.47;1.83;;;18.30;65.50;;;;;;4984633;28;20088;-75
2022/05/27 07:27:41;;;;;;;3.13;1.60;;;18.30;65.30;;;;;;4972319;28;20441;-76
2022/05/27 07:30:10;;;;;;;4.55;1.63;;;18.30;65.20;;;;;;4972872;28;20030;-76
2022/05/27 07:32:36;;;;;;;2.60;1.35;;;18.30;65.10;;;;;;4934343;28;20041;-76
2022/05/27 07:35:03;;;;;;;2.28;1.60;;;18.30;65.10;;;;;;4986354;28;20018;-75
2022/05/27 07:37:29;;;;;;;4.68;2.30;;;18.30;65.00;;;;;;4991589;28;20445;-75
2022/05/27 07:39:54;;;;;;;4.60;2.03;;;18.40;64.90;;;;;;4967816;28;20029;-75
2022/05/27 07:42:20;;;;;;;1.60;1.50;;;18.50;64.80;;;;;;4968395;28;20057;-75
2022/05/27 07:44:45;;;;;;;2.97;1.20;;;18.50;64.70;;;;;;4976138;28;20545;-75
2022/05/27 07:47:14;;;;;;;3.78;1.40;;;18.60;64.60;;;;;;4982983;28;21881;-76
2022/05/27 07:49:39;;;;;;;2.08;1.70;;;18.60;64.50;;;;;;5000276;28;20034;-77
2022/05/27 07:52:06;;;;;;;3.10;1.10;;;18.60;64.50;;;;;;4977521;28;20053;-76
2022/05/27 07:54:32;;;;;;;3.28;1.38;;;18.70;64.30;;;;;;5003636;28;20033;-76
2022/05/27 07:56:58;;;;;;;3.92;1.50;;;18.70;64.20;;;;;;5003457;28;20798;-76
2022/05/27 07:59:24;;;;;;;2.50;1.25;;;18.70;64.00;;;;;;4957738;28;20102;-77
2022/05/27 08:01:49;;;;;;;3.20;1.30;;;18.70;63.90;;;;;;4970431;28;20030;-76
2022/05/27 08:04:15;;;;;;;1.85;1.30;;;18.70;63.80;;;;;;4987142;28;20062;-76
2022/05/27 08:06:40;;;;;;;2.70;1.30;;;18.70;63.80;;;;;;4982209;28;20041;-75
2022/05/27 08:09:06;;;;;;;2.67;1.45;;;18.70;64.00;;;;;;4970156;28;20034;-76
2022/05/27 08:11:32;;;;;;;4.85;1.30;;;18.70;63.70;;;;;;4989474;28;20037;-76
2022/05/27 08:14:00;;;;;;;3.65;1.40;;;18.70;63.60;;;;;;4947784;28;20034;-76
2022/05/27 08:16:26;;;;;;;3.20;1.27;;;18.80;63.60;;;;;;4981211;28;20037;-76
2022/05/27 08:18:51;;;;;;;1.77;1.35;;;18.70;63.50;;;;;;4956267;28;20045;-75
2022/05/27 08:21:17;;;;;;;3.35;1.40;;;18.70;63.60;;;;;;4992760;28;20066;-75
2022/05/27 08:23:42;;;;;;;2.95;1.20;;;18.70;64.20;;;;;;5004364;28;20541;-76
2022/05/27 08:26:08;;;;;;;1.30;1.00;;;18.70;63.30;;;;;;4988703;28;20494;-75
2022/05/27 08:28:33;;;;;;;3.28;1.25;;;18.70;63.30;;;;;;4975439;28;20601;-74
2022/05/27 08:30:59;;;;;;;3.53;1.52;;;18.70;63.30;;;;;;4975985;28;20034;-74
2022/05/27 08:33:25;;;;;;;5.97;2.00;;;18.70;63.30;;;;;;4973351;28;20038;-74
2022/05/27 08:38:36;;;;;;;4.05;1.80;;;18.70;63.20;;;;;;4968918;28;20081;-74
2022/05/27 08:41:14;;;;;;;1.58;1.42;;;18.70;63.20;;;;;;4975096;28;20046;-73
2022/05/27 08:44:17;;;;;;;1.60;1.50;;;18.70;63.40;;;;;;4988212;28;20117;-74
2022/05/27 08:46:54;;;;;;;2.67;1.50;;;18.70;63.30;;;;;;4993738;28;20037;-74
2022/05/27 08:49:22;;;;;;;3.58;1.50;;;18.70;63.20;;;;;;4987632;28;20033;-74
2022/05/27 08:51:55;;;;;;;2.95;1.25;;;18.70;63.20;;;;;;4989134;28;20048;-74
2022/05/27 08:54:24;;;;;;;2.60;1.33;;;18.70;63.20;;;;;;4988188;28;20030;-74
2022/05/27 09:00:01;;;;;;;4.78;1.20;;;18.80;63.20;;;;;;4993364;28;20058;-75
2022/05/27 09:02:44;;;;;;;2.40;1.40;;;18.80;63.20;;;;;;4994953;28;20062;-74
2022/05/27 09:05:33;;;;;;;1.52;1.40;;;18.80;63.20;;;;;;4983839;28;20038;-76
2022/05/27 09:08:10;;;;;;;3.63;1.83;;;18.80;63.10;;;;;;4998548;28;20037;-75
2022/05/27 09:10:46;;;;;;;3.17;1.48;;;18.90;63.20;;;;;;4975178;28;20030;-75
2022/05/27 09:13:41;;;;;;;5.55;1.92;;;18.90;63.10;;;;;;5009512;28;20033;-75
2022/05/27 09:16:22;;;;;;;2.50;1.40;;;18.90;63.20;;;;;;4978309;28;20053;-75
2022/05/27 09:18:53;;;;;;;3.97;1.20;;;19.00;63.10;;;;;;5002020;28;20038;-75
2022/05/27 09:21:25;;;;;;;2.90;1.83;;;19.00;63.00;;;;;;4990890;28;20104;-75
2022/05/27 09:24:00;;;;;;;4.55;1.67;;;19.10;63.00;;;;;;4990951;28;20068;-76
2022/05/27 09:27:00;;;;;;;4.43;1.88;;;19.10;62.90;;;;;;4992798;28;20053;-75
2022/05/27 09:29:34;;;;;;;3.90;1.33;;;19.20;62.90;;;;;;4995199;28;20569;-75
2022/05/27 09:32:18;;;;;;;2.60;1.65;;;19.20;62.70;;;;;;5001415;28;20030;-75
2022/05/27 09:34:43;;;;;;;4.10;1.65;;;19.30;62.60;;;;;;4993417;28;20133;-75
2022/05/27 09:37:12;;;;;;;2.38;1.40;;;19.30;62.50;;;;;;5003101;28;20078;-75
2022/05/27 09:39:38;;;;;;;2.55;1.95;;;19.40;62.40;;;;;;4992985;28;20109;-75
2022/05/27 09:42:18;;;;;;;1.48;1.33;;;19.40;62.20;;;;;;5002951;28;20531;-75
2022/05/27 09:44:53;;;;;;;4.45;1.80;;;19.50;62.30;;;;;;4995324;28;20041;-76
2022/05/27 09:47:19;;;;;;;3.10;1.90;;;19.60;62.10;;;;;;4971019;28;20037;-74
2022/05/27 09:49:46;;;;;;;2.20;1.52;;;19.60;62.00;;;;;;4985062;28;20034;-76
2022/05/27 09:52:11;;;;;;;2.38;1.60;;;19.70;61.90;;;;;;4994175;28;21657;-76
2022/05/27 09:54:44;;;;;;;1.50;1.20;;;19.80;61.80;;;;;;4974971;28;20126;-76
2022/05/27 09:57:10;;;;;;;2.33;1.27;;;19.80;61.70;;;;;;4983809;28;20080;-74
2022/05/27 09:59:40;;;;;;;2.25;1.40;;;19.90;61.60;;;;;;4998979;28;20465;-74
2022/05/27 10:02:19;;;;;;;2.10;1.25;;;19.90;61.50;;;;;;4970015;28;20050;-75
2022/05/27 10:04:50;;;;;;;2.40;1.20;;;20.00;61.60;;;;;;4986354;28;20042;-75
2022/05/27 10:07:24;;;;;;;2.00;1.17;;;20.10;61.40;;;;;;4968961;28;20045;-75
2022/05/27 10:09:50;;;;;;;3.58;1.20;;;20.20;61.20;;;;;;4963129;28;20038;-74
2022/05/27 10:12:26;;;;;;;2.15;1.10;;;20.40;61.20;;;;;;5004403;28;20052;-74
2022/05/27 10:14:52;;;;;;;1.75;1.20;;;20.50;61.00;;;;;;4981430;28;20038;-75
2022/05/27 10:17:27;;;;;;;2.30;1.10;;;20.70;60.80;;;;;;4953560;28;20560;-74
2022/05/27 10:19:53;;;;;;;1.85;1.33;;;20.80;60.50;;;;;;4966013;28;20030;-74
2022/05/27 10:22:28;;;;;;;3.42;1.00;;;20.90;60.20;;;;;;4978291;28;20040;-74
2022/05/27 10:25:16;;;;;;;1.45;1.00;;;21.00;59.90;;;;;;4967561;28;20920;-74
2022/05/27 10:27:50;;;;;;;2.30;1.10;;;21.10;59.40;;;;;;4986300;28;20038;-74
2022/05/27 10:30:22;;;;;;;2.28;1.30;;;21.10;59.50;;;;;;4976338;28;20065;-74
2022/05/27 10:32:48;;;;;;;2.60;1.45;;;21.00;59.40;;;;;;4987130;28;20795;-75
2022/05/27 10:35:16;;;;;;;1.80;1.23;;;21.00;59.40;;;;;;4970468;28;20073;-74
2022/05/27 10:37:47;;;;;;;2.33;1.30;;;21.00;59.40;;;;;;4998002;28;20029;-74
2022/05/27 10:40:14;;;;;;;;;;;21.10;59.30;;;;;;4997140;28;20554;-75
2022/05/27 10:42:45;;;;;;;2.22;1.40;;;21.20;59.30;;;;;;4998116;28;20464;-75
2022/05/27 10:45:30;;;;;;;1.30;1.20;;;21.30;59.20;;;;;;5000305;28;20051;-75
2022/05/27 10:48:12;;;;;;;1.85;1.30;;;21.40;58.80;;;;;;4976344;28;20041;-74
2022/05/27 10:50:57;;;;;;;2.40;1.17;;;21.50;58.50;;;;;;4983976;28;20026;-75
2022/05/27 10:54:05;;;;;;;2.45;1.83;;;21.60;58.40;;;;;;4978981;28;20041;-76
2022/05/27 10:56:39;;;;;;;3.10;1.77;;;21.70;58.10;;;;;;4952702;28;20038;-74
2022/05/27 11:02:14;;;;;;;4.95;1.73;;;21.80;58.00;;;;;;4979987;28;20041;-75
2022/05/27 11:04:57;;;;;;;2.08;1.38;;;21.80;57.80;;;;;;4960943;28;20045;-75
2022/05/27 11:07:50;;;;;;;3.90;1.73;;;21.80;57.90;;;;;;4995706;28;20073;-74
2022/05/27 11:10:35;;;;;;;3.78;1.50;;;21.80;57.80;;;;;;4986833;28;20042;-74
2022/05/27 11:16:33;;;;;;;1.95;1.35;;;21.70;57.80;;;;;;4997861;28;20427;-73
2022/05/27 11:19:36;;;;;;;2.75;1.58;;;21.70;57.80;;;;;;4997907;28;20034;-74
2022/05/27 11:22:40;;;;;;;2.88;1.70;;;21.60;57.80;;;;;;4996034;28;20042;-74
2022/05/27 11:25:11;;;;;;;2.42;1.55;;;21.60;57.90;;;;;;4977598;28;20073;-74
2022/05/27 11:27:56;;;;;;;;;;;21.50;58.00;;;;;;4994438;28;20044;-74
2022/05/27 11:30:55;;;;;;;2.38;1.42;;;21.50;58.10;;;;;;4992683;28;20003;-74
2022/05/27 11:33:44;;;;;;;3.30;2.25;;;21.40;58.20;;;;;;4994817;28;20037;-74
2022/05/27 11:36:35;;;;;;;2.25;1.60;;;21.40;58.40;;;;;;4992315;28;20394;-74
2022/05/27 11:39:55;;;;;;;1.92;1.70;;;21.40;58.50;;;;;;4976875;28;20037;-75
2022/05/27 11:42:43;;;;;;;3.85;1.70;;;21.30;58.60;;;;;;4959191;28;20045;-74
2022/05/27 11:45:19;;;;;;;2.50;1.50;;;21.30;58.60;;;;;;4950341;28;20142;-75
2022/05/27 11:47:57;;;;;;;2.58;1.80;;;21.30;58.90;;;;;;4941010;28;20043;-75
2022/05/27 11:50:44;;;;;;;1.63;1.52;;;21.30;58.90;;;;;;4941665;28;20212;-74
2022/05/27 11:53:22;;;;;;;2.45;1.63;;;21.40;58.90;;;;;;4949131;28;20046;-75
2022/05/27 11:55:53;;;;;;;2.72;1.60;;;21.40;59.10;;;;;;4933103;28;20058;-74
2022/05/27 11:58:34;;;;;;;2.80;1.70;;;21.40;58.90;;;;;;4916908;28;20037;-74
2022/05/27 12:01:35;;;;;;;3.83;1.40;;;21.50;59.10;;;;;;4941003;28;20090;-75
2022/05/27 12:04:19;;;;;;;2.42;1.55;;;21.50;59.00;;;;;;4917370;28;20186;-73
2022/05/27 12:07:03;;;;;;;2.47;1.88;;;21.60;58.90;;;;;;4948317;28;20038;-75
2022/05/27 12:09:31;;;;;;;1.90;1.80;;;21.50;59.00;;;;;;4932436;28;20034;-74
2022/05/27 12:12:06;;;;;;;2.58;1.60;;;21.50;59.00;;;;;;4921272;28;20134;-75
2022/05/27 12:14:54;;;;;;;2.42;1.60;;;21.40;59.10;;;;;;4928642;28;20067;-75
2022/05/27 12:17:21;;;;;;;2.85;1.90;;;21.40;59.40;;;;;;4945601;28;20518;-75
2022/05/27 12:20:00;;;;;;;2.67;1.70;;;21.30;59.30;;;;;;4955605;28;20316;-74
2022/05/27 12:22:30;;;;;;;2.95;1.52;;;21.30;59.70;;;;;;4951938;28;20096;-73
2022/05/27 12:25:04;;;;;;;3.47;1.60;;;21.20;59.60;;;;;;4960737;28;20034;-74
2022/05/27 12:27:29;;;;;;;2.65;2.08;;;21.20;59.80;;;;;;4950040;28;20037;-73
2022/05/27 12:29:55;;;;;;;6.05;2.20;;;21.10;59.90;;;;;;4963729;28;20042;-73
2022/05/27 12:32:23;;;;;;;2.47;1.70;;;21.20;60.40;;;;;;4953725;28;20606;-73
2022/05/27 12:34:48;;;;;;;4.82;1.77;;;21.20;61.00;;;;;;4949894;28;21488;-73
2022/05/27 12:37:27;;;;;;;5.00;1.50;;;21.30;61.00;;;;;;4970142;28;20132;-72
2022/05/27 12:40:13;;;;;;;2.03;1.50;;;21.30;61.30;;;;;;4941853;28;20033;-71
2022/05/27 12:42:40;;;;;;;2.95;1.70;;;21.30;61.00;;;;;;4971787;28;20104;-73
2022/05/27 12:45:32;;;;;;;1.92;1.50;;;21.30;61.10;;;;;;4938134;28;20068;-75
2022/05/27 12:47:58;;;;;;;3.22;1.60;;;21.40;61.60;;;;;;4925894;28;20150;-72
2022/05/27 12:50:29;;;;;;;3.15;1.58;;;21.40;61.20;;;;;;4982273;28;20776;-73
2022/05/27 12:52:57;;;;;;;4.22;1.60;;;21.30;61.20;;;;;;4981860;28;20140;-72
2022/05/27 13:01:32;;;;;;;1.23;1.05;;;21.10;61.30;;;;;;4981238;28;20080;-73
2022/05/27 13:03:59;;;;;;;2.50;1.08;;;21.00;61.50;;;;;;4986310;28;20045;-75
2022/05/27 13:06:25;;;;;;;0.82;0.73;;;20.90;61.20;;;;;;4987762;28;20084;-74
2022/05/27 13:08:50;;;;;;;1.88;0.80;;;20.90;61.40;;;;;;4990670;28;20022;-74
2022/05/27 13:11:21;;;;;;;0.80;0.80;;;20.70;61.40;;;;;;4979719;28;20041;-74
2022/05/27 13:14:18;;;;;;;0.80;0.70;;;20.70;61.80;;;;;;4989307;28;20750;-73
2022/05/27 13:16:43;;;;;;;0.80;0.50;;;20.70;62.00;;;;;;4959956;28;20056;-73
2022/05/27 13:19:21;;;;;;;0.70;0.40;;;20.60;61.80;;;;;;4989064;28;20441;-73
2022/05/27 13:21:57;;;;;;;0.55;0.47;;;20.60;62.20;;;;;;4988333;28;20041;-74
2022/05/27 13:24:30;;;;;;;0.88;0.50;;;20.60;62.40;;;;;;4976349;28;20037;-73
2022/05/27 13:27:04;;;;;;;1.60;0.40;;;20.50;62.40;;;;;;4969417;28;20465;-74
2022/05/27 13:29:33;;;;;;;1.33;0.68;;;20.40;62.40;;;;;;4962764;28;20473;-73
2022/05/27 13:32:03;;;;;;;0.47;0.47;;;20.40;62.60;;;;;;4992020;28;20685;-73
2022/05/27 13:34:45;;;;;;;1.25;0.47;;;20.30;62.80;;;;;;4978645;28;20023;-74
2022/05/27 13:37:29;;;;;;;2.17;0.60;;;20.30;63.10;;;;;;4972749;28;20046;-73
2022/05/27 13:40:03;;;;;;;0.77;0.70;;;20.30;63.70;;;;;;4985232;28;20419;-73
2022/05/27 13:42:33;;;;;;;2.38;0.60;;;20.30;63.30;;;;;;4955551;28;20309;-72
2022/05/27 13:45:01;;;;;;;2.00;0.57;;;20.30;63.20;;;;;;4993509;28;20030;-73